createdAt,value
2022-09-27T00:02:27.059Z,10.50
2022-09-27T00:05:17.453Z,10.30
2022-09-27T00:08:07.466Z,11.20
2022-09-27T00:11:03.287Z,10.90
2022-09-27T00:13:55.053Z,10.40
2022-09-27T00:16:45.403Z,10.50
2022-09-27T00:19:35.354Z,10.10
2022-09-27T00:22:25.684Z,10.00
2022-09-27T00:25:16.529Z,9.60
2022-09-27T00:28:06.538Z,9.70
2022-09-27T00:30:56.692Z,10.10
2022-09-27T00:33:47.073Z,9.90
2022-09-27T00:36:37.008Z,10.20
2022-09-27T00:39:27.453Z,9.80
2022-09-27T00:42:17.826Z,9.00
2022-09-27T00:45:15.755Z,9.10
2022-09-27T00:48:06.367Z,9.40
2022-09-27T00:50:58.900Z,9.70
2022-09-27T00:53:50.992Z,9.10
2022-09-27T00:56:41.140Z,9.50
2022-09-27T00:59:34.329Z,9.60
2022-09-27T01:02:24.487Z,9.60
2022-09-27T01:05:16.175Z,9.40
2022-09-27T01:08:06.115Z,9.40
2022-09-27T01:11:14.665Z,9.40
2022-09-27T01:14:21.585Z,9.30
2022-09-27T01:17:24.472Z,9.50
2022-09-27T01:20:54.040Z,9.30
2022-09-27T01:24:20.832Z,8.80
2022-09-27T01:28:13.413Z,8.90
2022-09-27T01:31:05.541Z,8.60
2022-09-27T01:34:02.037Z,8.20
2022-09-27T01:36:56.471Z,9.20
2022-09-27T01:39:50.190Z,8.90
2022-09-27T01:42:57.011Z,9.00
2022-09-27T01:45:50.752Z,8.60
2022-09-27T01:48:55.894Z,8.50
2022-09-27T01:51:48.699Z,8.00
2022-09-27T01:54:44.855Z,9.10
2022-09-27T01:57:57.785Z,8.40
2022-09-27T02:00:49.380Z,7.70
2022-09-27T02:03:44.624Z,8.20
2022-09-27T02:07:15.419Z,8.30
2022-09-27T02:10:09.668Z,7.80
2022-09-27T02:13:12.910Z,8.10
2022-09-27T02:16:08.109Z,8.10
2022-09-27T02:19:07.966Z,8.80
2022-09-27T02:22:04.869Z,9.40
2022-09-27T02:24:58.459Z,9.30
2022-09-27T02:27:57.691Z,8.50
2022-09-27T02:30:49.421Z,8.70
2022-09-27T02:33:46.754Z,9.20
2022-09-27T02:36:37.627Z,9.70
2022-09-27T02:39:27.681Z,10.30
2022-09-27T02:42:23.314Z,10.20
2022-09-27T02:45:13.700Z,10.40
2022-09-27T02:48:13.076Z,10.60
2022-09-27T02:51:26.944Z,10.60
2022-09-27T02:54:24.349Z,10.30
2022-09-27T02:57:33.355Z,11.10
2022-09-27T03:00:42.089Z,11.10
2022-09-27T03:03:53.445Z,11.40
2022-09-27T03:06:45.868Z,12.00
2022-09-27T03:09:44.203Z,11.10
2022-09-27T03:12:34.853Z,12.20
2022-09-27T03:15:25.091Z,12.20
2022-09-27T03:18:23.996Z,12.00
2022-09-27T03:21:16.721Z,11.90
2022-09-27T03:24:07.500Z,12.40
2022-09-27T03:26:58.040Z,12.80
2022-09-27T03:29:47.953Z,13.00
2022-09-27T03:32:43.921Z,13.30
2022-09-27T03:35:54.822Z,12.50
2022-09-27T03:38:45.322Z,12.30
2022-09-27T03:41:37.551Z,12.10
2022-09-27T03:44:27.500Z,12.60
2022-09-27T03:47:17.481Z,12.50
2022-09-27T03:50:11.568Z,13.30
2022-09-27T03:53:01.755Z,12.30
2022-09-27T03:55:51.735Z,12.00
2022-09-27T03:58:41.832Z,11.70
2022-09-27T04:01:32.046Z,11.80
2022-09-27T04:04:24.384Z,11.30
2022-09-27T04:07:14.493Z,11.30
2022-09-27T04:10:06.136Z,11.60
2022-09-27T04:12:56.808Z,12.30
2022-09-27T04:15:52.180Z,11.10
2022-09-27T04:19:15.322Z,12.00
2022-09-27T04:22:13.074Z,10.60
2022-09-27T04:25:03.123Z,11.10
2022-09-27T04:27:59.215Z,10.20
2022-09-27T04:30:49.604Z,11.00
2022-09-27T04:34:06.360Z,10.30
2022-09-27T04:36:58.569Z,10.40
2022-09-27T04:40:01.179Z,11.20
2022-09-27T04:42:51.929Z,10.30
2022-09-27T04:45:41.907Z,10.80
2022-09-27T04:48:31.896Z,10.10
2022-09-27T04:51:21.824Z,10.40
2022-09-27T04:54:11.923Z,10.10
2022-09-27T04:57:09.909Z,10.00
2022-09-27T05:00:00.611Z,10.70
2022-09-27T05:02:51.178Z,10.20
2022-09-27T05:06:06.468Z,10.20
2022-09-27T05:08:57.847Z,9.50
2022-09-27T05:15:01.306Z,9.80
2022-09-27T05:18:10.188Z,10.00
2022-09-27T05:21:18.577Z,10.00
2022-09-27T05:24:09.881Z,10.10
2022-09-27T05:26:59.965Z,8.90
2022-09-27T05:29:50.141Z,9.30
2022-09-27T05:32:46.121Z,9.60
2022-09-27T05:35:58.907Z,9.30
2022-09-27T05:38:53.152Z,9.60
2022-09-27T05:41:43.808Z,9.80
2022-09-27T05:44:36.672Z,9.70
2022-09-27T05:47:27.029Z,9.30
2022-09-27T05:50:17.519Z,9.60
2022-09-27T05:53:07.539Z,10.30
2022-09-27T05:56:02.248Z,10.00
2022-09-27T05:58:58.007Z,10.10
2022-09-27T06:01:50.476Z,10.40
2022-09-27T06:05:00.357Z,10.70
2022-09-27T06:08:10.839Z,10.60
2022-09-27T06:11:08.082Z,10.20
2022-09-27T06:13:58.232Z,10.70
2022-09-27T06:16:49.427Z,11.10
2022-09-27T06:19:40.857Z,11.40
2022-09-27T06:22:31.933Z,10.30
2022-09-27T06:25:23.111Z,10.40
2022-09-27T06:28:25.086Z,10.60
2022-09-27T06:31:18.623Z,10.30
2022-09-27T06:34:27.583Z,10.60
2022-09-27T06:37:17.911Z,10.90
2022-09-27T06:40:10.961Z,10.70
2022-09-27T06:43:21.918Z,11.60
2022-09-27T06:46:32.070Z,10.70
2022-09-27T06:49:32.045Z,10.50
2022-09-27T06:52:23.231Z,10.10
2022-09-27T06:55:13.493Z,10.70
2022-09-27T06:58:22.041Z,12.00
2022-09-27T07:01:31.290Z,11.60
2022-09-27T07:04:54.206Z,11.40
2022-09-27T07:08:04.902Z,10.90
2022-09-27T07:11:02.311Z,10.80
2022-09-27T07:13:52.877Z,11.80
2022-09-27T07:16:42.989Z,10.20
2022-09-27T07:19:33.136Z,10.60
2022-09-27T07:22:23.212Z,10.80
2022-09-27T07:25:20.365Z,10.50
2022-09-27T07:28:19.616Z,10.40
2022-09-27T07:31:12.475Z,10.30
2022-09-27T07:34:03.602Z,10.40
2022-09-27T07:36:54.548Z,10.30
2022-09-27T07:39:45.993Z,10.10
2022-09-27T07:42:38.441Z,10.10
2022-09-27T07:45:28.425Z,9.90
2022-09-27T07:48:46.048Z,9.50
2022-09-27T07:51:58.699Z,9.80
2022-09-27T07:55:13.032Z,9.80
2022-09-27T07:58:16.191Z,9.20
2022-09-27T08:01:06.665Z,9.90
2022-09-27T08:03:57.987Z,9.30
2022-09-27T08:06:49.202Z,9.00
2022-09-27T08:09:39.897Z,9.50
2022-09-27T08:12:29.890Z,9.60
2022-09-27T08:15:19.938Z,9.20
2022-09-27T08:18:09.924Z,8.90
2022-09-27T08:21:18.875Z,9.40
2022-09-27T08:24:21.803Z,9.20
2022-09-27T08:27:38.621Z,9.30
2022-09-27T08:30:41.593Z,9.40
2022-09-27T08:33:34.159Z,8.90
2022-09-27T08:36:26.099Z,9.30
2022-09-27T08:39:16.417Z,8.90
2022-09-27T08:42:20.000Z,8.50
2022-09-27T08:45:13.516Z,9.60
2022-09-27T08:48:04.120Z,9.20
2022-09-27T08:50:54.563Z,9.40
2022-09-27T08:53:49.157Z,9.80
2022-09-27T08:56:39.725Z,9.90
2022-09-27T08:59:31.666Z,9.70
2022-09-27T09:02:24.106Z,12.40
2022-09-27T09:05:19.245Z,12.30
2022-09-27T09:08:25.983Z,11.00
2022-09-27T09:11:49.801Z,10.50
2022-09-27T09:15:07.309Z,12.10
2022-09-27T09:18:11.486Z,12.70
2022-09-27T09:21:20.273Z,13.00
2022-09-27T09:24:45.586Z,14.10
2022-09-27T09:27:39.843Z,13.00
2022-09-27T09:30:35.292Z,12.50
2022-09-27T09:33:28.234Z,12.40
2022-09-27T09:36:25.173Z,11.40
2022-09-27T09:39:17.666Z,11.00
2022-09-27T09:42:12.070Z,10.10
2022-09-27T09:45:05.404Z,10.10
2022-09-27T09:48:00.342Z,9.50
2022-09-27T09:50:52.458Z,9.40
2022-09-27T09:53:46.079Z,9.40
2022-09-27T09:56:38.436Z,9.00
2022-09-27T09:59:32.696Z,8.50
2022-09-27T10:02:30.181Z,8.70
2022-09-27T10:05:25.951Z,10.00
2022-09-27T10:08:22.266Z,11.60
2022-09-27T10:11:23.060Z,13.10
2022-09-27T10:14:21.799Z,13.30
2022-09-27T10:17:15.583Z,13.30
2022-09-27T10:20:07.861Z,12.50
2022-09-27T10:23:01.436Z,12.50
2022-09-27T10:26:03.603Z,12.80
2022-09-27T10:29:16.786Z,12.80
2022-09-27T10:32:12.650Z,12.50
2022-09-27T10:35:37.064Z,12.30
2022-09-27T10:38:30.549Z,12.70
2022-09-27T10:41:38.944Z,12.10
2022-09-27T10:44:32.748Z,12.40
2022-09-27T10:47:43.067Z,12.60
2022-09-27T10:50:52.910Z,12.40
2022-09-27T10:53:58.189Z,13.40
2022-09-27T10:56:58.668Z,12.70
2022-09-27T10:59:52.983Z,14.80
2022-09-27T11:02:42.885Z,15.20
2022-09-27T11:05:37.732Z,14.40
2022-09-27T11:08:32.321Z,14.10
2022-09-27T11:11:29.641Z,15.90
2022-09-27T11:14:21.989Z,14.80
2022-09-27T11:17:17.433Z,15.40
2022-09-27T11:20:22.692Z,14.70
2022-09-27T11:23:43.864Z,16.80
2022-09-27T11:26:46.956Z,15.40
2022-09-27T11:29:53.377Z,15.50
2022-09-27T11:33:30.664Z,16.70
2022-09-27T11:39:20.708Z,16.60
2022-09-27T11:42:41.538Z,16.70
2022-09-27T11:46:10.787Z,17.50
2022-09-27T11:49:09.389Z,16.30
2022-09-27T11:52:17.573Z,16.30
2022-09-27T11:55:26.865Z,16.30
2022-09-27T11:58:23.973Z,15.30
2022-09-27T12:01:23.238Z,16.10
2022-09-27T12:04:41.941Z,16.10
2022-09-27T12:07:36.879Z,16.90
2022-09-27T12:10:26.794Z,14.50
2022-09-27T12:13:27.693Z,13.00
2022-09-27T12:16:19.119Z,13.70
2022-09-27T12:19:14.780Z,13.10
2022-09-27T12:22:47.033Z,12.70
2022-09-27T12:25:40.658Z,11.50
2022-09-27T12:28:40.277Z,12.20
2022-09-27T12:31:33.310Z,11.60
2022-09-27T12:34:28.452Z,11.30
2022-09-27T12:37:21.150Z,11.40
2022-09-27T12:40:17.786Z,10.60
2022-09-27T12:43:12.140Z,11.00
2022-09-27T12:46:23.042Z,11.10
2022-09-27T12:49:16.042Z,10.00
2022-09-27T12:52:09.223Z,10.50
2022-09-27T12:56:06.394Z,11.00
2022-09-27T12:59:36.200Z,10.00
2022-09-27T13:03:26.126Z,9.90
2022-09-27T13:06:41.915Z,9.50
2022-09-27T13:10:12.544Z,9.50
2022-09-27T13:13:04.120Z,9.80
2022-09-27T13:15:57.920Z,9.90
2022-09-27T13:18:58.713Z,9.30
2022-09-27T13:22:01.063Z,9.30
2022-09-27T13:25:00.338Z,9.20
2022-09-27T13:28:37.642Z,9.80
2022-09-27T13:32:14.864Z,9.10
2022-09-27T13:35:40.164Z,9.30
2022-09-27T13:38:34.791Z,8.80
2022-09-27T13:41:25.574Z,9.30
2022-09-27T13:44:20.747Z,8.90
2022-09-27T13:47:26.953Z,8.40
2022-09-27T13:50:24.724Z,8.60
2022-09-27T13:53:28.302Z,7.90
2022-09-27T13:56:51.440Z,7.40
2022-09-27T13:59:48.264Z,7.90
2022-09-27T14:03:15.004Z,8.10
2022-09-27T14:06:08.748Z,7.80
2022-09-27T14:09:01.155Z,7.40
2022-09-27T14:11:54.031Z,7.50
2022-09-27T14:14:45.079Z,8.30
2022-09-27T14:17:35.334Z,7.90
2022-09-27T14:20:41.103Z,7.40
2022-09-27T14:23:38.126Z,7.20
2022-09-27T14:26:29.407Z,7.90
2022-09-27T14:29:20.572Z,6.90
2022-09-27T14:32:13.280Z,7.40
2022-09-27T14:35:33.189Z,7.80
2022-09-27T14:38:39.541Z,6.80
2022-09-27T14:41:52.475Z,7.20
2022-09-27T14:44:44.873Z,7.00
2022-09-27T14:47:34.921Z,6.70
2022-09-27T14:50:28.256Z,7.20
2022-09-27T14:53:22.986Z,6.50
2022-09-27T14:56:17.397Z,6.60
2022-09-27T14:59:12.871Z,7.00
2022-09-27T15:02:09.683Z,6.60
2022-09-27T15:04:59.662Z,7.00
2022-09-27T15:07:50.938Z,6.20
2022-09-27T15:10:41.254Z,6.20
2022-09-27T15:13:31.245Z,6.80
2022-09-27T15:16:23.012Z,6.40
2022-09-27T15:19:18.243Z,6.50
2022-09-27T15:22:41.804Z,6.80
2022-09-27T15:25:34.156Z,6.30
2022-09-27T15:28:27.369Z,6.10
2022-09-27T15:31:17.645Z,6.40
2022-09-27T15:34:15.871Z,5.90
2022-09-27T15:37:05.991Z,6.40
2022-09-27T15:39:55.933Z,6.20
2022-09-27T15:42:57.242Z,6.50
2022-09-27T15:45:51.636Z,7.00
2022-09-27T15:48:41.663Z,6.00
2022-09-27T15:51:40.776Z,6.00
2022-09-27T15:54:34.330Z,6.00
2022-09-27T15:57:31.310Z,6.00
2022-09-27T16:00:22.183Z,5.90
2022-09-27T16:03:12.240Z,5.90
2022-09-27T16:06:03.373Z,6.10
2022-09-27T16:08:53.337Z,6.60
2022-09-27T16:11:43.339Z,6.00
2022-09-27T16:14:33.307Z,6.60
2022-09-27T16:17:23.875Z,5.40
2022-09-27T16:20:21.000Z,6.20
2022-09-27T16:23:10.922Z,6.20
2022-09-27T16:26:00.877Z,6.40
2022-09-27T16:28:52.597Z,6.30
2022-09-27T16:31:43.672Z,6.50
2022-09-27T16:34:33.736Z,6.10
2022-09-27T16:37:23.933Z,7.30
2022-09-27T16:40:14.603Z,8.00
2022-09-27T16:43:06.735Z,6.50
2022-09-27T16:46:02.797Z,6.80
2022-09-27T16:48:52.966Z,6.40
2022-09-27T16:52:06.284Z,7.10
2022-09-27T16:54:56.333Z,6.80
2022-09-27T16:57:46.380Z,6.40
2022-09-27T17:00:36.652Z,5.50
2022-09-27T17:03:28.060Z,5.00
2022-09-27T17:06:18.980Z,4.60
2022-09-27T17:09:11.323Z,4.40
2022-09-27T17:12:01.890Z,4.80
2022-09-27T17:14:52.369Z,4.60
2022-09-27T17:17:44.567Z,4.70
2022-09-27T17:20:34.641Z,4.30
2022-09-27T17:23:24.686Z,5.00
2022-09-27T17:26:18.228Z,5.30
2022-09-27T17:29:09.653Z,5.20
2022-09-27T17:32:01.174Z,5.40
2022-09-27T17:34:51.983Z,5.30
2022-09-27T17:37:42.065Z,5.30
2022-09-27T17:40:33.918Z,5.40
2022-09-27T17:43:23.936Z,6.00
2022-09-27T17:46:14.058Z,5.60
2022-09-27T17:49:22.960Z,5.60
2022-09-27T17:52:12.941Z,5.70
2022-09-27T17:55:03.077Z,6.30
2022-09-27T17:57:53.137Z,6.70
2022-09-27T18:00:43.098Z,6.00
2022-09-27T18:03:34.254Z,6.00
2022-09-27T18:06:25.707Z,5.90
2022-09-27T18:09:27.749Z,6.40
2022-09-27T18:12:18.076Z,6.30
2022-09-27T18:15:10.302Z,5.90
2022-09-27T18:18:00.564Z,6.40
2022-09-27T18:20:50.557Z,6.60
2022-09-27T18:23:40.543Z,6.20
2022-09-27T18:26:34.454Z,6.30
2022-09-27T18:29:24.811Z,6.10
2022-09-27T18:32:14.865Z,6.20
2022-09-27T18:35:07.700Z,6.00
2022-09-27T18:37:57.775Z,6.20
2022-09-27T18:40:56.999Z,6.00
2022-09-27T18:43:47.722Z,6.10
2022-09-27T18:46:37.838Z,6.50
2022-09-27T18:49:33.018Z,6.60
2022-09-27T18:52:24.040Z,6.60
2022-09-27T18:55:15.577Z,6.30
2022-09-27T18:58:06.361Z,6.90
2022-09-27T19:01:00.026Z,6.50
2022-09-27T19:03:50.009Z,7.00
2022-09-27T19:06:41.305Z,6.60
2022-09-27T19:09:31.914Z,7.00
2022-09-27T19:12:21.842Z,6.20
2022-09-27T19:15:12.808Z,6.80
2022-09-27T19:18:04.267Z,6.70
2022-09-27T19:20:54.717Z,5.80
2022-09-27T19:23:44.968Z,5.70
2022-09-27T19:26:35.129Z,6.40
2022-09-27T19:29:25.406Z,6.50
2022-09-27T19:32:15.413Z,6.30
2022-09-27T19:35:08.273Z,5.60
2022-09-27T19:37:58.564Z,6.10
2022-09-27T19:40:55.063Z,5.70
2022-09-27T19:43:46.782Z,5.30
2022-09-27T19:46:37.148Z,5.60
2022-09-27T19:49:27.284Z,5.40
2022-09-27T19:52:17.248Z,5.30
2022-09-27T19:55:09.989Z,5.80
2022-09-27T19:57:59.997Z,5.90
2022-09-27T20:00:56.942Z,5.90
2022-09-27T20:03:46.963Z,6.10
2022-09-27T20:06:37.009Z,5.90
2022-09-27T20:09:27.138Z,6.00
2022-09-27T20:12:17.120Z,5.90
2022-09-27T20:15:09.353Z,6.00
2022-09-27T20:17:59.316Z,6.00
2022-09-27T20:20:49.319Z,5.80
2022-09-27T20:23:39.532Z,6.30
2022-09-27T20:26:30.727Z,6.30
2022-09-27T20:29:20.848Z,6.60
2022-09-27T20:32:26.749Z,6.40
2022-09-27T20:35:18.473Z,6.90
2022-09-27T20:38:08.407Z,7.10
2022-09-27T20:40:59.501Z,7.00
2022-09-27T20:43:53.446Z,7.30
2022-09-27T20:46:44.025Z,7.70
2022-09-27T20:49:34.216Z,7.60
2022-09-27T20:52:24.358Z,8.10
2022-09-27T20:55:15.854Z,7.70
2022-09-27T20:58:06.088Z,7.70
2022-09-27T21:00:56.153Z,8.00
2022-09-27T21:03:46.405Z,8.10
2022-09-27T21:06:36.669Z,8.30
2022-09-27T21:09:26.729Z,7.90
2022-09-27T21:12:17.946Z,8.60
2022-09-27T21:15:10.106Z,8.80
2022-09-27T21:18:00.073Z,8.30
2022-09-27T21:20:56.964Z,8.60
2022-09-27T21:23:47.358Z,9.00
2022-09-27T21:26:37.337Z,9.10
2022-09-27T21:29:27.432Z,8.90
2022-09-27T21:32:17.380Z,9.00
2022-09-27T21:35:09.791Z,9.30
2022-09-27T21:37:59.868Z,9.80
2022-09-27T21:40:57.716Z,10.30
2022-09-27T21:43:48.628Z,9.70
2022-09-27T21:46:40.563Z,8.90
2022-09-27T21:49:32.390Z,10.10
2022-09-27T21:52:27.517Z,10.00
2022-09-27T21:55:17.646Z,10.60
2022-09-27T21:58:07.739Z,10.20
2022-09-27T22:00:57.705Z,10.50
2022-09-27T22:03:48.445Z,10.30
2022-09-27T22:06:39.313Z,10.40
2022-09-27T22:09:29.363Z,11.00
2022-09-27T22:12:19.288Z,10.60
2022-09-27T22:15:12.845Z,10.50
2022-09-27T22:18:02.929Z,10.70
2022-09-27T22:20:52.913Z,10.70
2022-09-27T22:23:44.795Z,11.90
2022-09-27T22:26:36.088Z,11.40
2022-09-27T22:29:26.045Z,11.70
2022-09-27T22:32:16.000Z,11.50
2022-09-27T22:35:08.194Z,11.90
2022-09-27T22:37:58.119Z,11.40
2022-09-27T22:40:57.958Z,12.30
2022-09-27T22:43:47.974Z,11.60
2022-09-27T22:46:38.069Z,11.60
2022-09-27T22:49:28.327Z,12.20
2022-09-27T22:52:18.275Z,11.90
2022-09-27T22:55:10.307Z,12.00
2022-09-27T22:58:00.767Z,12.40
2022-09-27T23:00:50.823Z,12.70
2022-09-27T23:03:40.826Z,12.60
2022-09-27T23:06:32.545Z,11.90
2022-09-27T23:09:22.576Z,12.80
2022-09-27T23:12:13.253Z,12.10
2022-09-27T23:15:03.523Z,12.60
2022-09-27T23:17:54.542Z,12.20
2022-09-27T23:20:44.488Z,12.50
2022-09-27T23:23:34.812Z,11.80
2022-09-27T23:26:25.890Z,12.30
2022-09-27T23:29:16.042Z,12.60
2022-09-27T23:32:06.517Z,12.40
2022-09-27T23:34:56.526Z,12.00
2022-09-27T23:37:46.428Z,12.40
2022-09-27T23:40:36.507Z,12.50
2022-09-27T23:43:26.584Z,12.40
2022-09-27T23:46:16.842Z,12.20
2022-09-27T23:49:06.935Z,12.00
2022-09-27T23:51:56.888Z,12.20
2022-09-27T23:54:46.855Z,11.50
2022-09-27T23:57:37.089Z,11.80
